AirNav   Bose ProFlight Series 2 Headset
 
 1878 users online  

MY10 Deters Farms Airport
Spring Grove, Minnesota, USA

GOING TO SPRING GROVE?


FAA INFORMATION EFFECTIVE 02 JANUARY 2020

Location

FAA Identifier: MY10
Lat/Long: 43-33-39.8850N 091-40-53.5280W
43-33.664750N 091-40.892133W
43.5610792,-91.6815356
(estimated)
Elevation: 1220 ft. / 372 m (estimated)
Variation: 02E (1985)
From city: 2 miles W of SPRING GROVE, MN
Time zone: UTC -6 (UTC -5 during Daylight Saving Time)
Zip code: 55974

Airport Operations

Airport use: Private use. Permission required prior to landing
Activation date: 07/1980
Control tower: no
ARTCC: MINNEAPOLIS CENTER
FSS: PRINCETON FLIGHT SERVICE STATION
Attendance: UNATNDD
Wind indicator: yes
Segmented circle: no

Airport Communications

WX AWOS-3 at DEH (17 nm S): 120.925 (563-382-2990)
  • COMMUNICATIONS WITH ARPT AVBL ON FREQ 122.9.

Nearby radio navigation aids

VOR radial/distance  VOR name  Freq  Var
UKNr335/18.0WAUKON VOR/DME116.6005E
ODIr203/23.0NODINE VORTAC117.9001E

Airport Services

Runway Information

Runway 13/31

Dimensions: 1800 x 100 ft. / 549 x 30 m
Surface: turf
RUNWAY 13  RUNWAY 31
Traffic pattern: leftleft
Obstructions: 20 ft. trees, 700 ft. from runway50 ft. trees, 400 ft. from runway

Airport Ownership and Management from official FAA records

Ownership: Privately-owned
Owner: JOHN DETERS
18072 DAIRY RD.
SPRING GROVE, MN 55974
Phone 507-498-5756
Manager: JOHN DETERS
18072 DAIRY RD.
SPRING GROVE, MN 55974
Phone 507-498-5756

Airport Operational Statistics

Aircraft based on the field: 1
Single engine airplanes: 1
    

Additional Remarks

FOR CD CTC MINNEAPOLIS ARTCC AT 651-463-5588.

Instrument Procedures

There are no published instrument procedures at MY10.

Some nearby airports with instrument procedures:

KCHU - Houston County Airport (8 nm E)
55Y - Rushford Municipal-Robert W Bunke Field Airport (17 nm NW)
KDEH - Decorah Municipal Airport (17 nm S)
KFKA - Fillmore County Airport (23 nm W)
KCJJ - Ellen Church Field Airport (23 nm SW)
 
Loc | Ops | Rwys | IFR | FBO | Links
Com | Nav | Svcs | Stats | Notes
Area around MY10 (Deters Farms Airport)
 
Road maps at: MapQuest Bing Google
 
Aerial photo
No photo
 
Sectional chart

 
Airport distance calculator
Flying to Deters Farms Airport? Find the distance to fly.

From to MY10

Sunrise and sunset
Times for 23-Jan-2020
 Local
(UTC-6)
 Zulu
(UTC)
Morning civil twilight07:0213:02
Sunrise07:3313:33
Sunset17:0523:05
Evening civil twilight17:3623:36

Current date and time
Zulu (UTC)  23-Jan-2020 20:38:37
Local (UTC-6)  23-Jan-2020 14:38:37
 
METAR
KDEH 
18nm S 
232015Z AUTO 07004KT 3SM BR BKN009 M01/M01 A2995 RMK AO2
KFKA 
23nm W 
232016Z AUTO 05004KT 1 1/2SM -SN OVC008 M02/M03 A2996 RMK AO2 T10171030
KLSE 
27nm NE 
232021Z 29003KT 3SM HZ SCT014 OVC048 01/M02 A3000 RMK AO2 SNB02E18 P0000 T00061022
KONA 
30nm N 
232015Z AUTO 00000KT 2 1/2SM -RA SCT007 BKN013 OVC018 00/M01 A3001 RMK AO2
KY51 
34nm E 
232015Z AUTO 07004KT 2 1/2SM SCT010 BKN030 OVC041 00/M01 A2996 RMK AO1 T10051008
TAF
KLSE 
27nm NE 
231834Z 2319/2418 07004KT 2SM BR OVC009 FM232000 06004KT 4SM BR OVC009 FM240900 01004KT 4SM BR VCSH OVC007 FM241200 01005KT 2SM -SN BR OVC006
NOTAMs
Click for the latest NOTAMs
NOTAMs are issued by the DoD/FAA and will open in a separate window not controlled by AirNav.

 

 
 

Would you like to see your business listed on this page?

 If your business provides an interesting product or service to pilots, flight crews, aircraft, or users of the Deters Farms Airport, you should consider listing it here.  To start the listing process, click on the button below
 
Add a business
 

Other Pages about Deters Farms Airport

Update a link
 
Copyright © AirNav, LLC. All rights reserved. Privacy Policy  Contact